Flight Track Log - Related Links

Times and Time Zones

All times are in EDT time to prevent confusion due to time zone crossing. See the GJS3710 flight status page for this flight to view local times or setup timezone preferences in your user account.

Time Position Orientation Groundspeed Altitude Reporting Facility
EDT Latitude Longitude Course Direction KTS MPH feet Rate Location/Type
Mon 15:52:07 30.1489 -97.5947 338° Northwest 247 284 5,200  Level Houston Center
Mon 15:53:09 30.1908 -97.5231 56° Northeast 281 323 7,400 2,323 Climbing Houston Center
Mon 15:54:11 30.2747 -97.5122 North 297 342 10,000 1,984 Climbing Houston Center
Mon 15:55:13 30.3839 -97.5022 North 336 387 11,500 1,632 Climbing Houston Center
Mon 15:56:00 30.7057 -97.9106 334° Northwest  Level FlightAware Approximate
Mon 15:56:16 30.4872 -97.4925 North 362 417 13,400  Level Houston Center
Mon 15:57:00 30.8079 -97.9608 338° Northwest  Level FlightAware Approximate
Mon 15:57:18 30.5883 -97.4928 360° North 364 419 15,900  Level Houston Center
Mon 15:58:20 30.6872 -97.5219 346° North 361 415 17,700 1,790 Climbing Houston Center
Mon 15:59:22 30.7889 -97.5544 345° North 370 426 19,600 1,645 Climbing Houston Center
Mon 16:00:24 30.8961 -97.5511 North 381 438 21,100 1,403 Climbing Houston Center
Mon 16:01:26 31.0078 -97.5294 North 394 453 22,500 919 Climbing Houston Center
Mon 16:02:28 31.1236 -97.5083 North 408 470 23,000 720 Climbing Houston Center
Mon 16:03:31 31.2428 -97.4858 North 422 486 24,000 960 Climbing Houston Center
Mon 16:04:33 31.3636 -97.4639 North 430 495 25,000 958 Climbing Houston Center
Mon 16:05:30 31.4867 -97.4425 North 431 496 25,900 769 Climbing Fort Worth Center
Mon 16:06:30 31.6119 -97.4183 North 446 513 26,500 650 Climbing Fort Worth Center
Mon 16:07:30 31.7394 -97.3939 North 458 527 27,200 700 Climbing Fort Worth Center
Mon 16:08:30 31.8731 -97.3303 22° Northeast 458 527 27,900 1,050 Climbing Fort Worth Center
Mon 16:09:30 31.9878 -97.2714 24° Northeast 458 527 29,300 1,150 Climbing Fort Worth Center
Mon 16:10:30 32.0964 -97.2147 24° Northeast 456 525 30,200 900 Climbing Fort Worth Center
Mon 16:11:30 32.2278 -97.1506 22° Northeast 462 532 31,100 750 Climbing Fort Worth Center
Mon 16:12:30 32.3297 -97.0986 23° Northeast 450 518 31,700 650 Climbing Fort Worth Center
Mon 16:13:30 32.4611 -97.0317 23° Northeast 455 524 32,400 700 Climbing Fort Worth Center
Mon 16:14:30 32.5697 -96.9769 23° Northeast 454 522 33,100 700 Climbing Fort Worth Center
Mon 16:15:30 32.7008 -96.9097 23° Northeast 459 528 33,800 850 Climbing Fort Worth Center
Mon 16:16:30 32.8217 -96.8497 23° Northeast 459 528 34,800 850 Climbing Fort Worth Center
Mon 16:17:30 32.9236 -96.7997 22° Northeast 453 521 35,500 600 Climbing Fort Worth Center
Mon 16:18:30 33.0569 -96.7367 22° Northeast 460 529 36,000 500 Climbing Fort Worth Center
Mon 16:19:30 33.1736 -96.6714 25° Northeast 460 529 36,500 500 Climbing Fort Worth Center
Mon 16:20:30 33.2900 -96.6108 24° Northeast 454 522 37,000 250 Climbing Fort Worth Center
Mon 16:21:30 33.3942 -96.5525 25° Northeast 449 517 37,000  Level Fort Worth Center
Mon 16:22:30 33.5144 -96.4642 31° Northeast 455 524 37,000  Level Fort Worth Center
Mon 16:23:30 33.6119 -96.3908 32° Northeast 462 532 37,000  Level Fort Worth Center
Mon 16:24:30 33.7322 -96.2944 34° Northeast 462 532 37,000  Level Fort Worth Center
Mon 16:25:30 33.8358 -96.2133 33° Northeast 457 526 37,000  Level Fort Worth Center
Mon 16:26:30 33.9456 -96.1292 32° Northeast 457 526 37,000  Level Fort Worth Center
Mon 16:27:30 34.0511 -96.0472 33° Northeast 457 526 37,000  Level Fort Worth Center
Mon 16:28:30 34.1628 -95.9603 33° Northeast 457 526 37,000  Level Fort Worth Center
Mon 16:29:30 34.2703 -95.8756 33° Northeast 457 526 37,000  Level Fort Worth Center
Mon 16:30:30 34.3758 -95.7906 34° Northeast 457 526 37,000  Level Fort Worth Center
Mon 16:31:30 34.4853 -95.7053 33° Northeast 457 526 37,000  Level Fort Worth Center
Mon 16:32:30 34.5883 -95.6225 33° Northeast 457 526 37,000  Level Fort Worth Center
Mon 16:33:30 34.6875 -95.5472 32° Northeast 462 532 37,000  Level Fort Worth Center
Mon 16:34:30 34.7944 -95.4589 34° Northeast 462 532 37,000  Level Fort Worth Center
Mon 16:36:21 34.9883 -95.3072 33° Northeast 463 533 37,000  Level Memphis Center
Mon 16:37:21 35.0939 -95.2219 33° Northeast 463 533 37,000  Level Memphis Center
Mon 16:38:21 35.1994 -95.1367 33° Northeast 458 527 37,000  Level Memphis Center
Mon 16:39:21 35.3050 -95.0486 34° Northeast 458 527 37,000  Level Memphis Center
Mon 16:40:21 35.4103 -94.9653 33° Northeast 458 527 37,000  Level Memphis Center
Mon 16:41:21 35.5178 -94.8769 34° Northeast 458 527 37,000  Level Memphis Center
Mon 16:42:21 35.6231 -94.7908 34° Northeast 458 527 37,000  Level Memphis Center
Mon 16:43:21 35.7306 -94.7044 33° Northeast 458 527 37,000  Level Memphis Center
Mon 16:44:21 35.8378 -94.6153 34° Northeast 458 527 37,000  Level Memphis Center
Mon 16:45:21 35.9450 -94.5286 33° Northeast 458 527 37,000  Level Memphis Center
Mon 16:46:21 36.0522 -94.4389 34° Northeast 458 527 37,000  Level Memphis Center
Mon 16:48:02 36.2367 -94.2828 34° Northeast 462 532 37,000  Level Kansas City Center
Mon 16:49:04 36.3444 -94.1922 34° Northeast 467 537 37,000  Level Kansas City Center
Mon 16:50:06 36.4558 -94.1025 33° Northeast 474 545 37,000  Level Kansas City Center
Mon 16:51:08 36.5622 -94.0122 34° Northeast 466 536 37,000  Level Kansas City Center
Mon 16:52:10 36.6694 -93.9217 34° Northeast 467 537 37,000  Level Kansas City Center
Mon 16:53:12 36.7981 -93.8131 34° Northeast 468 539 37,000  Level Kansas City Center
Mon 16:54:14 36.8972 -93.7281 34° Northeast 460 529 37,000  Level Kansas City Center
Mon 16:55:16 37.0036 -93.6364 35° Northeast 462 532 37,000  Level Kansas City Center
Mon 16:56:18 37.1119 -93.5444 34° Northeast 466 536 37,000  Level Kansas City Center
Mon 16:57:20 37.2419 -93.4333 34° Northeast 469 540 37,000  Level Kansas City Center
Mon 16:58:22 37.3506 -93.3397 34° Northeast 472 543 37,000  Level Kansas City Center
Mon 16:59:24 37.4558 -93.2453 35° Northeast 466 536 37,000  Level Kansas City Center
Mon 17:00:26 37.5606 -93.1467 37° Northeast 467 537 37,000  Level Kansas City Center
Mon 17:01:28 37.6692 -93.0469 36° Northeast 478 550 37,000  Level Kansas City Center
Mon 17:02:30 37.7742 -92.9481 37° Northeast 472 543 37,000  Level Kansas City Center
Mon 17:03:32 37.8817 -92.8475 36° Northeast 478 550 37,000  Level Kansas City Center
Mon 17:04:35 38.0033 -92.7333 36° Northeast 474 545 37,000  Level Kansas City Center
Mon 17:05:37 38.1100 -92.6336 36° Northeast 476 548 37,000  Level Kansas City Center
Mon 17:06:39 38.2269 -92.5231 37° Northeast 476 548 37,000  Level Kansas City Center
Mon 17:07:41 38.3342 -92.4206 37° Northeast 477 549 37,000  Level Kansas City Center
Mon 17:08:43 38.4417 -92.3186 37° Northeast 477 549 37,000  Level Kansas City Center
Mon 17:09:45 38.5475 -92.2161 37° Northeast 475 547 37,000  Level Kansas City Center
Mon 17:10:47 38.6533 -92.1147 37° Northeast 475 547 37,000  Level Kansas City Center
Mon 17:11:49 38.7597 -92.0122 37° Northeast 475 547 37,000  Level Kansas City Center
Mon 17:12:51 38.8661 -91.9092 37° Northeast 477 549 37,000  Level Kansas City Center
Mon 17:13:53 38.9944 -91.7861 37° Northeast 478 550 37,000  Level Kansas City Center
Mon 17:14:55 39.1000 -91.6825 37° Northeast 477 549 37,000  Level Kansas City Center
Mon 17:15:57 39.1933 -91.5922 37° Northeast 480 552 37,000  Level Kansas City Center
Mon 17:16:59 39.3222 -91.4647 37° Northeast 485 558 37,000  Level Kansas City Center
Mon 17:18:01 39.4286 -91.3600 37° Northeast 483 556 37,000  Level Kansas City Center
Mon 17:19:03 39.5353 -91.2544 37° Northeast 482 555 37,000  Level Kansas City Center
Mon 17:20:05 39.6419 -91.1475 38° Northeast 483 556 37,000  Level Kansas City Center
Mon 17:21:07 39.7489 -91.0411 37° Northeast 483 556 37,000  Level Kansas City Center
Mon 17:22:09 39.8700 -90.9197 38° Northeast 480 552 37,000 -532 Level Kansas City Center
Mon 17:23:11 39.9775 -90.8136 37° Northeast 483 556 35,900 -1,355 Descending Kansas City Center
Mon 17:24:13 40.0844 -90.7022 39° Northeast 488 562 34,200 -1,487 Descending Kansas City Center
Mon 17:25:04 40.1633 -90.6225 38° Northeast 487 560 33,100 -637 Descending Chicago Center
Mon 17:26:06 40.2783 -90.5050 38° Northeast 493 567 33,000 -48 Descending Chicago Center
Mon 17:27:08 40.3858 -90.3947 38° Northeast 490 564 33,000  Level Chicago Center
Mon 17:28:10 40.5144 -90.2631 38° Northeast 487 560 33,000  Level Chicago Center
Mon 17:29:12 40.6181 -90.1503 40° Northeast 481 554 33,000 -532 Level Chicago Center
Mon 17:30:14 40.7303 -90.0417 36° Northeast 493 567 31,900 -1,536 Descending Chicago Center
Mon 17:31:17 40.8394 -89.9281 38° Northeast 500 575 29,800 -2,064 Descending Chicago Center
Mon 17:32:19 40.9450 -89.8183 38° Northeast 483 556 27,600 -2,081 Descending Chicago Center
Mon 17:33:21 41.0569 -89.6983 39° Northeast 481 554 25,500 -1,984 Descending Chicago Center
Mon 17:34:23 41.1619 -89.5819 40° Northeast 490 564 23,500 -2,081 Descending Chicago Center
Mon 17:35:25 41.2264 -89.4256 61° Northeast 485 558 21,200 -2,274 Descending Chicago Center
Mon 17:36:27 41.2894 -89.2753 61° Northeast 470 541 18,800 -2,516 Descending Chicago Center
Mon 17:37:29 41.3500 -89.1147 63° Northeast 449 517 16,000 -2,323 Descending Chicago Center
Mon 17:38:31 41.4067 -88.9725 62° Northeast 440 506 14,000 -1,935 Descending Chicago Center
Mon 17:39:33 41.4744 -88.8053 62° Northeast 429 494 12,000 -1,452 Descending Chicago Center
Mon 17:40:35 41.5292 -88.6692 62° Northeast 418 481 11,000 -629 Descending Chicago Center
Mon 17:41:37 41.5736 -88.5517 63° Northeast 354 407 10,700 -677 Descending Chicago Center
Mon 17:42:39 41.6203 -88.4472 59° Northeast 329 379 9,600 -1,016 Descending Chicago Center
Mon 17:43:41 41.6744 -88.3550 52° Northeast 318 366 8,600 -960 Descending Chicago Center
Mon 17:44:44 41.7272 -88.2639 52° Northeast 310 357 7,600 -768 Descending Chicago Center
Mon 17:45:46 41.7975 -88.1764 43° Northeast 289 333 7,000 -290 Descending Chicago Center
Mon 17:46:48 41.8597 -88.1447 21° North 236 272 7,000  Level Chicago Center
Mon 17:47:29 41.9000 -88.1167 27° Northeast 229 264 7,000  Level Chicago TRACON
Mon 17:48:29 41.9667 -88.1000 11° North 221 254 7,000  Level Chicago TRACON
Mon 17:49:35 42.0167 -88.1333 334° Northwest 203 234 7,000  Level Chicago TRACON
Mon 17:49:54 42.0256 -88.1422 323° Northwest 205 236 7,000  Level Chicago Center
Mon 17:50:56 42.0803 -88.1961 324° Northwest 205 236 7,000 -484 Level Chicago Center
Mon 17:51:58 42.1264 -88.2381 326° Northwest 203 234 6,000 -871 Descending Chicago Center
Mon 17:53:00 42.1717 -88.2833 323° Northwest 203 234 5,200 -484 Descending Chicago Center
Mon 17:54:02 42.2169 -88.2478 30° Northeast 220 253 5,000 -97 Descending Chicago Center
Mon 17:55:04 42.1969 -88.1781 111° Southeast 206 237 5,000  Level Chicago Center
Mon 17:56:06 42.1625 -88.1247 131° Southeast 196 226 5,000 -484 Level Chicago Center
Mon 17:57:08 42.1161 -88.0747 141° Southeast 182 209 4,000 -824 Descending Chicago Center
Mon 17:57:48 42.1000 -88.0500 131° Southeast 163 188 3,600 -720 Descending Chicago TRACON
Mon 17:58:48 42.0500 -88.0167 154° Southeast 172 198 2,800 -800 Descending Chicago TRACON

Login

Don't have an account? Register now (free) for customized features, flight alerts, and more!